Latest Weather Observations for Tennant Creek

IDD60801

Issued at 2:35 pm CST Sunday 26 October 2014 (issued every 30 minutes, with the page automatically refreshed every 10 minutes)

About weather observations | Map of weather stations | Latest weather observations for NT | Other Formats
Station Details ID: 015135 Name: TENNANT CREEK AIRPORT Lat: -19.64 Lon: 134.18 Height: 375.7 m
Data from the previous 72 hours. | See also: Recent months at Tennant Creek
Date/Time
CST
Temp
°C
App
Temp
°C
Dew
Point
Rel
Hum
%
Delta-T
°C
Wind Press
QNH
hPa
Press
MSL
hPa
Rain
since 9 am
mm
Dir
 
Spd
km/h
Gust
km/h
Spd
kts
Gust
kts
26/02:30pm 37.1 32.8 0.9 10 18.7 ENE 13 26 7 14 1012.4 - 0.0
26/02:00pm 36.4 30.4 -1.7 9 18.8 E 20 26 11 14 1012.9 - 0.0
26/01:35pm 37.1 28.7 -2.1 8 19.3 E 32 41 17 22 1013.3 - 0.0
26/01:30pm 37.3 32.7 -0.9 9 19.2 NE 13 22 7 12 1013.3 - 0.0
26/01:00pm 37.5 32.9 -1.3 8 19.4 E 13 17 7 9 1013.9 - 0.0
26/12:30pm 36.5 31.3 0.0 10 18.5 ESE 17 32 9 17 1014.5 - 0.0
26/12:00pm 36.2 31.6 1.4 11 18.0 NNE 15 30 8 16 1015.3 1012.7 0.0
26/11:30am 35.6 30.0 1.5 11 17.6 NE 20 43 11 23 1015.8 - 0.0
26/11:04am 36.4 29.0 -0.8 9 18.6 NE 28 46 15 25 1016.2 - 0.0
26/11:00am 36.7 29.3 -0.9 9 18.8 NE 28 35 15 19 1016.2 - 0.0
26/10:30am 35.8 31.0 0.2 10 18.0 ENE 15 30 8 16 1016.7 - 0.0
26/10:21am 35.4 27.5 1.3 11 17.5 NNE 32 41 17 22 1016.8 - 0.0
26/10:00am 34.2 31.3 6.6 18 15.3 NE 11 17 6 9 1016.8 - 0.0
26/09:30am 33.3 30.9 7.1 19 14.6 N 9 15 5 8 1016.9 - 0.0
26/09:00am 32.3 30.0 9.0 23 13.3 NNW 11 15 6 8 1017.0 1014.5 0.0
26/08:30am 31.0 29.0 11.5 30 11.5 NW 13 17 7 9 1017.0 - 0.0
26/08:00am 29.5 27.4 12.3 34 10.2 NNW 15 20 8 11 1016.8 - 0.0
26/07:30am 27.5 25.4 12.4 39 8.9 NW 15 22 8 12 1016.7 - 0.0
26/07:00am 26.1 23.0 11.6 40 8.4 NNW 19 24 10 13 1016.4 - 0.0
26/06:30am 24.5 21.6 9.5 38 8.3 NNW 15 22 8 12 1016.1 - 0.0
26/06:00am 24.2 20.5 8.1 35 8.7 N 17 24 9 13 1015.8 1013.3 0.0
26/05:30am 24.2 19.8 6.5 32 9.3 N 19 28 10 15 1015.6 - 0.0
26/05:00am 24.4 19.6 4.8 28 10.0 NNE 19 26 10 14 1015.4 - 0.0
26/04:30am 24.5 20.3 4.0 26 10.3 NNE 15 22 8 12 1015.2 - 0.0
26/04:00am 25.5 21.1 2.6 22 11.3 NNE 15 22 8 12 1015.0 - 0.0
26/03:30am 26.0 21.6 2.6 22 11.6 NNE 15 22 8 12 1014.8 - 0.0
26/03:00am 26.2 21.8 2.6 21 11.7 NNE 15 22 8 12 1014.8 1012.3 0.0
26/02:30am 26.4 21.7 0.8 19 12.3 NNE 15 22 8 12 1014.8 - 0.0
26/02:00am 26.4 21.6 0.0 17 12.5 NNE 15 20 8 11 1015.0 - 0.0
26/01:30am 28.2 23.2 1.3 17 13.2 NE 17 22 9 12 1015.1 - 0.0
26/01:00am 29.1 23.5 0.2 15 14.0 NE 19 26 10 14 1015.3 - 0.0
26/12:30am 28.8 23.8 1.1 16 13.6 NE 17 24 9 13 1015.7 - 0.0
26/12:00am 26.7 22.2 -0.1 17 12.7 E 13 17 7 9 1015.9 1013.4 0.0
 
Date/Time
CST
Temp
°C
App
Temp
°C
Dew
Point
Rel
Hum
%
Delta-T
°C
Wind Press
QNH
hPa
Press
MSL
hPa
Rain
since 9 am
mm
Dir
 
Spd
km/h
Gust
km/h
Spd
kts
Gust
kts
25/11:30pm 27.7 22.3 -1.1 15 13.5 E 17 24 9 13 1015.9 - 0.0
25/11:00pm 27.4 23.4 0.3 17 13.0 E 11 13 6 7 1016.0 - 0.0
25/10:30pm 28.5 25.7 3.4 20 12.8 ENE 7 11 4 6 1016.0 - 0.0
25/10:00pm 28.4 25.6 2.9 19 12.9 NE 7 11 4 6 1015.9 - 0.0
25/09:30pm 28.2 25.1 3.5 20 12.6 NE 9 11 5 6 1015.7 - 0.0
25/09:00pm 30.3 26.9 1.8 16 14.3 ESE 9 13 5 7 1015.5 1012.9 0.0
25/08:30pm 30.2 27.5 3.5 18 13.8 E 7 9 4 5 1015.3 - 0.0
25/08:00pm 30.6 28.0 4.3 19 13.8 E 7 7 4 4 1015.0 - 0.0
25/07:30pm 31.6 28.5 3.6 17 14.6 ENE 9 11 5 6 1014.7 - 0.0
25/07:00pm 32.7 30.0 3.9 16 15.2 E 7 11 4 6 1014.3 - 0.0
25/06:30pm 34.1 30.0 2.2 13 16.5 E 13 20 7 11 1014.0 - 0.0
25/06:00pm 35.0 30.0 1.2 12 17.3 ENE 17 28 9 15 1013.6 1011.1 0.0
25/05:30pm 35.7 30.9 0.5 11 17.9 E 15 28 8 15 1013.5 - 0.0
25/05:00pm 36.2 30.1 0.6 10 18.2 ENE 22 30 12 16 1013.2 - 0.0
25/04:30pm 36.3 29.6 1.3 11 18.1 ENE 26 35 14 19 1013.3 - 0.0
25/04:00pm 36.2 30.0 2.3 12 17.8 E 24 33 13 18 1013.4 - 0.0
25/03:30pm 36.8 31.2 0.9 10 18.5 E 20 35 11 19 1013.5 - 0.0
25/03:00pm 36.8 30.8 0.9 10 18.5 E 22 35 12 19 1013.8 1011.3 0.0
25/02:42pm 36.9 28.5 -0.7 9 18.9 E 33 44 18 24 1013.9 - 0.0
25/02:30pm 36.7 31.3 2.3 11 18.1 E 20 26 11 14 1014.2 - 0.0
25/02:00pm 36.8 31.9 2.1 11 18.2 NE 17 32 9 17 1014.6 - 0.0
25/01:30pm 35.9 30.6 3.1 13 17.4 E 20 33 11 18 1015.3 - 0.0
25/01:00pm 35.7 30.1 3.7 13 17.1 E 22 33 12 18 1015.7 - 0.0
25/12:30pm 35.7 29.1 2.1 12 17.5 E 26 41 14 22 1016.3 - 0.0
25/12:00pm 34.1 30.0 4.1 15 16.0 E 15 26 8 14 1016.7 1014.2 0.0
25/11:30am 34.8 29.8 3.8 14 16.5 E 19 35 10 19 1017.3 - 0.0
25/11:00am 34.4 29.5 4.0 15 16.2 NE 19 32 10 17 1017.8 - 0.0
25/10:30am 33.5 29.6 5.2 17 15.3 NE 15 24 8 13 1018.1 - 0.0
25/10:00am 32.2 31.1 9.9 25 12.9 ENE 6 11 3 6 1018.5 - 0.0
25/09:30am 30.9 30.6 13.2 34 10.7 WNW 7 15 4 8 1018.7 - 0.0
25/09:00am 29.6 29.2 14.2 39 9.4 NW 9 15 5 8 1019.0 1016.5 0.0
25/08:30am 28.8 28.4 14.0 40 9.0 NNW 9 17 5 9 1019.1 - 0.0
25/08:00am 27.5 25.5 13.9 43 8.2 NNW 17 24 9 13 1018.9 - 0.0
25/07:30am 26.7 23.7 12.0 40 8.6 NNW 19 26 10 14 1018.3 - 0.0
25/07:00am 25.6 22.9 10.2 38 8.7 N 15 22 8 12 1017.8 - 0.0
25/06:30am 25.2 22.9 10.3 39 8.4 N 13 20 7 11 1017.3 - 0.0
25/06:00am 24.7 20.7 8.3 35 8.9 N 19 26 10 14 1016.8 1014.3 0.0
25/05:30am 24.2 19.5 6.2 31 9.4 N 20 26 11 14 1016.5 - 0.0
25/05:00am 24.7 19.8 5.3 28 10.0 N 20 26 11 14 1016.1 - 0.0
25/04:30am 25.2 19.6 5.3 27 10.3 N 24 33 13 18 1015.9 - 0.0
25/04:00am 25.4 19.8 3.4 24 11.0 N 22 32 12 17 1015.6 - 0.0
25/03:30am 25.3 20.3 1.5 21 11.5 N 17 24 9 13 1015.4 - 0.0
25/03:00am 26.3 20.7 1.4 19 12.1 NNE 20 26 11 14 1015.2 1012.6 0.0
25/02:30am 26.4 21.5 1.9 20 12.0 NNE 17 22 9 12 1015.0 - 0.0
25/02:00am 27.1 22.0 0.8 18 12.7 NNE 17 24 9 13 1015.2 - 0.0
25/01:30am 27.2 22.5 0.6 17 12.8 NNE 15 22 8 12 1015.3 - 0.0
25/01:00am 28.1 23.4 1.1 17 13.2 NE 15 22 8 12 1015.4 - 0.0
25/12:30am 28.8 24.3 2.3 18 13.3 NE 15 22 8 12 1015.5 - 0.0
25/12:00am 29.6 23.5 0.6 15 14.2 NE 22 30 12 16 1015.6 1013.0 0.0
 
Date/Time
CST
Temp
°C
App
Temp
°C
Dew
Point
Rel
Hum
%
Delta-T
°C
Wind Press
QNH
hPa
Press
MSL
hPa
Rain
since 9 am
mm
Dir
 
Spd
km/h
Gust
km/h
Spd
kts
Gust
kts
24/11:30pm 28.5 23.5 1.2 17 13.4 ENE 17 24 9 13 1015.8 - 0.0
24/11:00pm 27.2 23.8 2.1 19 12.4 E 9 13 5 7 1015.9 - 0.0
24/10:30pm 27.4 24.1 2.6 20 12.4 E 9 13 5 7 1015.9 - 0.0
24/10:00pm 27.2 23.8 3.9 22 11.9 E 11 13 6 7 1015.8 - 0.0
24/09:30pm 28.1 25.5 4.0 21 12.4 E 7 9 4 5 1015.7 - 0.0
24/09:00pm 28.4 26.1 4.9 22 12.3 E 6 9 3 5 1015.3 1012.7 0.0
24/08:30pm 29.5 27.1 5.4 21 12.8 ESE 7 7 4 4 1014.8 - 0.0
24/08:00pm 30.2 27.8 5.2 20 13.3 E 7 9 4 5 1014.6 - 0.0
24/07:30pm 31.2 28.0 3.1 17 14.5 E 9 11 5 6 1014.3 - 0.0
24/07:00pm 32.6 28.5 2.2 14 15.6 E 13 22 7 12 1014.1 - 0.0
24/06:30pm 34.1 29.0 1.0 12 16.8 E 17 28 9 15 1013.7 - 0.0
24/06:00pm 34.8 30.0 0.3 11 17.4 E 15 32 8 17 1013.3 1010.7 0.0
24/05:30pm 35.6 29.6 1.1 11 17.7 NE 22 30 12 16 1013.1 - 0.0
24/05:00pm 35.5 31.5 0.4 11 17.8 E 11 22 6 12 1013.0 - 0.0
24/04:30pm 35.6 29.2 0.7 11 17.8 E 24 39 13 21 1013.1 - 0.0
24/04:00pm 35.4 31.2 1.9 12 17.4 ESE 13 30 7 16 1013.2 - 0.0
24/03:30pm 35.7 30.5 2.2 12 17.5 NE 19 32 10 17 1013.4 - 0.0
24/03:00pm 35.5 31.5 4.8 15 16.7 ENE 15 32 8 17 1013.7 1011.2 0.0
24/02:30pm 35.8 29.9 2.0 12 17.6 ENE 22 41 12 22 1014.1 - 0.0
24/02:00pm 35.3 29.5 2.4 12 17.2 NE 22 30 12 16 1014.4 - 0.0
24/01:30pm 35.7 29.9 2.2 12 17.5 NE 22 32 12 17 1014.7 - 0.0
24/01:00pm 34.2 29.6 3.6 14 16.2 ENE 17 30 9 16 1015.4 - 0.0
24/12:30pm 35.2 - 4.8 15 16.5 - - - - - 1015.9 - 0.0
24/12:00pm 35.0 29.6 4.3 14 16.5 NNE 22 43 12 23 1016.5 1014.0 0.0
24/11:30am 34.2 29.1 3.2 14 16.3 NNE 19 26 10 14 1017.0 - 0.0
24/11:00am 33.8 30.0 5.8 17 15.3 ENE 15 24 8 13 1017.3 - 0.0
24/10:30am 33.7 28.1 5.6 17 15.3 ENE 24 35 13 19 1017.6 - 0.0
24/10:00am 32.7 28.9 8.9 23 13.6 NNE 19 32 10 17 1018.0 - 0.0
24/09:30am 32.1 28.2 9.5 24 13.0 N 20 33 11 18 1018.2 - 0.0
24/09:00am 31.2 28.9 13.0 33 11.0 N 17 26 9 14 1018.2 1015.7 0.0
24/08:30am 29.6 27.6 13.8 38 9.6 N 17 22 9 12 1018.1 - 0.0
24/08:00am 28.2 25.4 14.2 42 8.5 N 22 28 12 15 1017.8 - 0.0
24/07:30am 26.6 24.5 14.6 47 7.3 N 19 24 10 13 1017.3 - 0.0
24/07:00am 25.7 24.0 14.7 50 6.7 N 17 24 9 13 1017.0 - 0.0
24/06:30am 24.7 23.0 14.6 53 6.1 N 17 22 9 12 1016.7 - 0.0
24/06:00am 24.2 22.5 14.6 55 5.8 N 17 24 9 13 1016.3 1013.8 0.0
24/05:30am 24.2 21.8 14.4 54 5.9 N 20 28 11 15 1016.0 - 0.0
24/05:00am 24.1 21.2 13.9 53 6.1 N 22 32 12 17 1015.7 - 0.0
24/04:30am 23.9 20.2 12.8 49 6.5 N 24 33 13 18 1015.5 - 0.0
24/04:00am 24.2 20.1 11.5 45 7.3 N 24 32 13 17 1015.2 - 0.0
24/03:30am 24.6 20.8 9.9 39 8.2 N 20 26 11 14 1015.1 - 0.0
24/03:00am 25.5 20.4 7.7 32 9.6 NNE 24 30 13 16 1015.2 1012.6 0.0
24/02:30am 26.8 21.1 4.8 24 11.4 NE 24 30 13 16 1015.1 - 0.0
24/02:00am 27.5 22.0 1.7 19 12.7 ENE 20 28 11 15 1015.2 - 0.0
24/01:30am 25.5 20.7 -2.6 15 12.6 ENE 13 15 7 8 1015.3 - 0.0
24/01:00am 25.8 20.8 -4.2 13 13.1 E 13 15 7 8 1015.5 - 0.0
24/12:30am 26.4 21.5 -3.5 14 13.3 E 13 15 7 8 1015.4 - 0.0
24/12:00am 26.0 21.2 -2.7 15 12.9 E 13 15 7 8 1015.6 1013.0 0.0
 
Date/Time
CST
Temp
°C
App
Temp
°C
Dew
Point
Rel
Hum
%
Delta-T
°C
Wind Press
QNH
hPa
Press
MSL
hPa
Rain
since 9 am
mm
Dir
 
Spd
km/h
Gust
km/h
Spd
kts
Gust
kts
23/11:30pm 25.7 21.5 -1.2 17 12.4 E 11 13 6 7 1015.9 - 0.0
23/11:00pm 25.4 22.3 1.3 20 11.6 E 7 11 4 6 1016.0 - 0.0
23/10:30pm 27.2 23.6 0.6 17 12.8 ESE 9 11 5 6 1016.0 - 0.0
23/10:00pm 26.7 23.7 4.2 23 11.5 E 9 11 5 6 1015.9 - 0.0
23/09:30pm 26.3 24.2 5.7 26 10.8 ENE 6 7 3 4 1015.7 - 0.0
23/09:00pm 28.0 25.3 2.4 19 12.8 ESE 6 7 3 4 1015.4 1012.8 0.0
23/08:30pm 28.9 26.7 6.4 24 12.1 E 7 9 4 5 1015.0 - 0.0
23/08:00pm 29.4 26.4 2.1 17 13.7 E 7 9 4 5 1014.8 - 0.0
23/07:30pm 30.7 27.2 1.2 15 14.7 E 9 13 5 7 1014.4 - 0.0
23/07:00pm 32.3 28.6 -0.2 12 16.0 E 9 15 5 8 1013.9 - 0.0
23/06:30pm 33.4 29.0 0.1 12 16.6 E 13 20 7 11 1013.5 - 0.0
23/06:00pm 34.4 28.6 -1.3 10 17.5 ESE 19 24 10 13 1013.2 1010.6 0.0
23/05:30pm 35.0 28.2 -1.5 10 17.9 E 24 33 13 18 1013.0 - 0.0
23/05:00pm 35.1 28.5 -0.2 10 17.7 E 24 32 13 17 1012.7 - 0.0
23/04:30pm 35.4 30.7 1.0 11 17.6 E 15 26 8 14 1012.6 - 0.0
23/04:00pm 36.0 29.9 0.5 10 18.1 SE 22 28 12 15 1012.7 - 0.0
23/03:30pm 36.2 30.3 -0.8 9 18.5 E 20 33 11 18 1012.9 - 0.0
23/03:00pm 35.8 28.9 -0.1 10 18.1 E 26 39 14 21 1013.1 1010.5 0.0

Other Formats:

Comma delimited format used in spreadsheet applications
http://www.bom.gov.au/fwo/IDD60801/IDD60801.94238.axf

JavaScript Object Notation format (JSON) in row-major order
http://www.bom.gov.au/fwo/IDD60801/IDD60801.94238.json